Roseville, Minnesota
Current Conditions -  °F | °C
As of 11:53 PM on Saturday 22 Nov 2014 (Local Time) from KSTP Reporting Station
Haze Haze  
Wind Chill: 32°   Ceiling: 1900
Heat Index: 37°   Visibility: 3mi
Dew Point: 37°   Wind: 7mph
Humidity: 100%   Direction: 160°SSE
Pressure: 29.53"   Gusts: NA
Location:  45.02°N, 93.15°W
Report Text: KSTP 230553Z AUTO 16006KT 3SM BR OVC019 03/03 A2953 RMK AO2 SLP002 T00280028 10028 20017 400280000 58013
Loading
Personal Weather Stations






























Interactive Weather Map New forecast layout! Learn more

10-Day Weather Forecast

Advertisements
Track Severe Weather on mobile